HEAO2: North Fork Red, OK

Data processed at Fri Jan 05 2018 23:12


All information presented herein is the property of the government of the United States of America and may be revised or deleted at any time without prior notice.
Dissemination of this information without the expressed written consent of the Public Affairs Office, Tulsa District U.S. Army Corps of Engineers is strictly prohibited.
These data are gathered electronically and, as presented, have not undergone any form of quality control. These data are not guaranteed to be valid or correct.
Go to home page.
Go to station list.

Upstream stations:

Downstream station:
Previous Day
Next Day
Current Day
    
SHEF ID:       HEAO2     North Fork Red River near Headri
STATION TYPE:  

               PRECIP     STAGE  RIV-FLOW   VOLTAGE
                   in        ft       cfs      volt
              Ccp-Rev   Ccp-Rev   Ccp-Rev   Ccp-Rev
(US/Central)
01/03 00:00      0.00     29.57      ----     12.81
01/03 01:00      0.00      6.67        98     12.79
01/03 02:00      0.00      6.59        84     12.76
01/03 03:00      0.00      6.67        98     12.74
01/03 04:00      0.00      9.63      1207     12.72
01/03 05:00      0.00      9.65      1218     12.70
01/03 06:00      0.00     10.06      1456     12.68
01/03 07:00      0.00     12.99      4022     12.64
01/03 08:00      0.00      6.69       103     13.24
01/03 09:00      0.00     11.70      2652     15.01
01/03 10:00      0.00      6.68       100     14.91
01/03 11:00      0.00      6.73       112     14.38
01/03 12:00      0.00      6.87       142     14.27
01/03 13:00      0.00      6.97       165     14.19
01/03 14:00      0.00      6.97       165     14.13
01/03 15:00      0.00      6.89       147     14.10
01/03 16:00      0.00      6.82       131     14.09
01/03 17:00      0.00      6.79       125     13.90
01/03 18:00      0.00      6.81       129     13.39
01/03 19:00      0.00      6.82       131     13.08
01/03 20:00      0.00      6.81       129     12.95
01/03 21:00      0.00      6.76       119     12.90
01/03 22:00      0.00      6.73       112     12.88
01/03 23:00      0.00      6.72       109     12.85